createdAt,value
2023-04-23T00:00:40.242Z,12.27
2023-04-23T00:03:10.755Z,11.43
2023-04-23T00:05:42.038Z,12.50
2023-04-23T00:08:11.386Z,11.70
2023-04-23T00:10:39.658Z,11.23
2023-04-23T00:13:08.186Z,11.20
2023-04-23T00:15:36.830Z,10.70
2023-04-23T00:18:04.868Z,13.02
2023-04-23T00:20:34.179Z,11.23
2023-04-23T00:23:03.464Z,11.43
2023-04-23T00:25:31.362Z,15.10
2023-04-23T00:27:59.177Z,15.80
2023-04-23T00:30:27.077Z,15.20
2023-04-23T00:32:55.363Z,12.82
2023-04-23T00:35:24.774Z,12.32
2023-04-23T00:37:52.628Z,17.70
2023-04-23T00:40:23.787Z,18.88
2023-04-23T00:42:53.668Z,12.10
2023-04-23T00:45:21.886Z,12.00
2023-04-23T00:47:50.602Z,15.27
2023-04-23T00:50:18.807Z,11.68
2023-04-23T00:52:46.644Z,14.48
2023-04-23T00:55:23.282Z,15.68
2023-04-23T00:57:52.731Z,14.52
2023-04-23T01:00:20.751Z,13.27
2023-04-23T01:02:50.581Z,13.75
2023-04-23T01:05:19.254Z,13.13
2023-04-23T01:07:48.770Z,12.10
2023-04-23T01:10:16.707Z,12.93
2023-04-23T01:12:44.654Z,11.57
2023-04-23T01:15:13.988Z,14.00
2023-04-23T01:17:43.236Z,13.10
2023-04-23T01:20:11.938Z,14.57
2023-04-23T01:22:41.176Z,11.20
2023-04-23T01:25:10.306Z,11.98
2023-04-23T01:27:38.789Z,12.40
2023-04-23T01:30:07.815Z,12.25
2023-04-23T01:32:36.470Z,11.05
2023-04-23T01:35:05.624Z,12.18
2023-04-23T01:37:34.326Z,13.70
2023-04-23T01:40:03.619Z,13.35
2023-04-23T01:42:31.470Z,11.90
2023-04-23T01:44:59.438Z,20.40
2023-04-23T01:47:27.615Z,12.80
2023-04-23T01:49:55.750Z,16.27
2023-04-23T01:52:23.616Z,11.75
2023-04-23T01:54:51.768Z,12.48
2023-04-23T01:57:26.589Z,11.70
2023-04-23T01:59:59.885Z,12.07
2023-04-23T02:02:27.994Z,13.15
2023-04-23T02:04:56.806Z,12.70
2023-04-23T02:07:24.702Z,13.55
2023-04-23T02:09:52.568Z,13.40
2023-04-23T02:12:21.863Z,12.10
2023-04-23T02:14:49.739Z,11.10
2023-04-23T02:17:17.622Z,12.85
2023-04-23T02:19:45.479Z,15.05
2023-04-23T02:22:13.659Z,18.95
2023-04-23T02:24:42.270Z,15.63
2023-04-23T02:27:10.877Z,15.93
2023-04-23T02:29:40.117Z,15.63
2023-04-23T02:32:08.059Z,17.83
2023-04-23T02:34:35.998Z,13.02
2023-04-23T02:37:05.234Z,12.00
2023-04-23T02:39:33.364Z,17.15
2023-04-23T02:42:01.994Z,15.48
2023-04-23T02:44:29.842Z,14.65
2023-04-23T02:46:59.117Z,15.00
2023-04-23T02:49:27.550Z,15.43
2023-04-23T02:51:55.540Z,14.98
2023-04-23T02:54:23.915Z,15.20
2023-04-23T02:56:51.827Z,16.65
2023-04-23T02:59:19.744Z,15.75
2023-04-23T03:01:47.737Z,14.18
2023-04-23T03:04:18.232Z,18.90
2023-04-23T03:06:46.166Z,18.90
2023-04-23T03:09:15.729Z,16.48
2023-04-23T03:11:43.718Z,15.65
2023-04-23T03:14:14.044Z,17.13
2023-04-23T03:16:42.027Z,16.10
2023-04-23T03:19:10.025Z,14.25
2023-04-23T03:21:39.242Z,12.25
2023-04-23T03:24:08.913Z,10.98
2023-04-23T03:26:36.782Z,14.95
2023-04-23T03:29:06.288Z,12.70
2023-04-23T03:31:34.823Z,15.70
2023-04-23T03:34:03.291Z,10.57
2023-04-23T03:36:34.732Z,13.93
2023-04-23T03:39:04.661Z,14.00
2023-04-23T03:41:45.914Z,11.88
2023-04-23T03:44:16.105Z,15.13
2023-04-23T03:46:46.292Z,12.88
2023-04-23T03:49:16.768Z,13.88
2023-04-23T03:51:45.341Z,12.90
2023-04-23T03:54:14.595Z,14.43
2023-04-23T03:59:20.566Z,14.48
2023-04-23T04:01:50.625Z,10.85
2023-04-23T04:04:19.825Z,11.45
2023-04-23T04:06:49.762Z,11.23
2023-04-23T04:09:19.085Z,15.38
2023-04-23T04:11:47.198Z,11.25
2023-04-23T04:14:16.950Z,16.92
2023-04-23T04:16:44.859Z,12.95
2023-04-23T04:19:12.728Z,16.75
2023-04-23T04:21:40.599Z,11.32
2023-04-23T04:24:08.724Z,15.07
2023-04-23T04:26:37.974Z,15.45
2023-04-23T04:29:05.871Z,12.60
2023-04-23T04:31:33.892Z,12.57
2023-04-23T04:34:01.831Z,12.73
2023-04-23T04:36:29.700Z,13.48
2023-04-23T04:38:58.604Z,14.52
2023-04-23T04:41:27.678Z,11.93
2023-04-23T04:43:58.564Z,14.63
2023-04-23T04:46:29.050Z,9.45
2023-04-23T04:48:57.102Z,13.30
2023-04-23T04:51:24.985Z,9.55
2023-04-23T04:53:52.885Z,12.90
2023-04-23T04:56:22.185Z,10.52
2023-04-23T04:58:50.004Z,11.75
2023-04-23T05:01:20.264Z,11.43
2023-04-23T05:03:48.342Z,12.50
2023-04-23T05:06:16.438Z,15.90
2023-04-23T05:08:48.119Z,12.30
2023-04-23T05:11:16.165Z,13.45
2023-04-23T05:13:44.556Z,12.18
2023-04-23T05:16:12.836Z,13.45
2023-04-23T05:18:42.311Z,11.15
2023-04-23T05:21:10.550Z,12.70
2023-04-23T05:23:38.428Z,10.43
2023-04-23T05:26:06.365Z,14.48
2023-04-23T05:28:34.251Z,12.60
2023-04-23T05:31:02.161Z,10.57
2023-04-23T05:33:33.451Z,9.10
2023-04-23T05:36:03.029Z,12.13
2023-04-23T05:38:30.972Z,19.40
2023-04-23T05:40:59.254Z,10.30
2023-04-23T05:43:27.083Z,11.35
2023-04-23T05:45:54.939Z,9.85
2023-04-23T05:48:22.848Z,9.80
2023-04-23T05:50:50.735Z,10.77
2023-04-23T05:53:19.993Z,8.27
2023-04-23T05:55:47.828Z,7.60
2023-04-23T05:58:15.956Z,8.38
2023-04-23T06:00:43.901Z,15.45
2023-04-23T06:03:11.865Z,10.25
2023-04-23T06:05:39.850Z,9.65
2023-04-23T06:08:07.844Z,9.27
2023-04-23T06:10:37.034Z,10.63
2023-04-23T06:13:04.883Z,10.73
2023-04-23T06:15:32.748Z,10.13
2023-04-23T06:18:00.830Z,8.18
2023-04-23T06:20:28.807Z,14.23
2023-04-23T06:22:56.740Z,10.30
2023-04-23T06:25:25.226Z,11.40
2023-04-23T06:27:54.606Z,12.88
2023-04-23T06:30:26.066Z,10.20
2023-04-23T06:32:54.335Z,9.82
2023-04-23T06:35:22.389Z,11.15
2023-04-23T06:37:50.386Z,14.52
2023-04-23T06:40:18.388Z,12.30
2023-04-23T06:42:47.610Z,9.50
2023-04-23T06:45:20.982Z,9.43
2023-04-23T06:47:49.853Z,8.57
2023-04-23T06:50:17.936Z,9.07
2023-04-23T06:52:46.117Z,11.38
2023-04-23T06:55:14.057Z,13.80
2023-04-23T06:57:42.007Z,8.52
2023-04-23T07:00:11.711Z,12.95
2023-04-23T07:02:43.893Z,9.77
2023-04-23T07:05:11.778Z,10.73
2023-04-23T07:07:40.770Z,15.13
2023-04-23T07:10:10.159Z,7.95
2023-04-23T07:12:38.428Z,8.35
2023-04-23T07:15:07.719Z,8.68
2023-04-23T07:17:36.111Z,8.00
2023-04-23T07:20:06.612Z,7.70
2023-04-23T07:22:34.651Z,7.82
2023-04-23T07:25:04.326Z,11.25
2023-04-23T07:27:32.223Z,14.43
2023-04-23T07:30:01.754Z,7.68
2023-04-23T07:32:29.620Z,7.53
2023-04-23T07:34:57.566Z,7.75
2023-04-23T07:37:27.004Z,11.65
2023-04-23T07:39:54.923Z,8.45
2023-04-23T07:42:22.861Z,10.18
2023-04-23T07:44:50.850Z,9.75
2023-04-23T07:47:18.693Z,10.00
2023-04-23T07:49:46.640Z,8.80
2023-04-23T07:52:15.594Z,8.70
2023-04-23T07:54:46.217Z,8.48
2023-04-23T07:57:14.123Z,8.25
2023-04-23T07:59:42.285Z,9.40
2023-04-23T08:02:10.666Z,7.25
2023-04-23T08:04:38.720Z,12.65
2023-04-23T08:07:06.650Z,12.75
2023-04-23T08:09:34.554Z,10.15
2023-04-23T08:12:03.782Z,9.82
2023-04-23T08:14:31.666Z,8.98
2023-04-23T08:17:01.325Z,12.68
2023-04-23T08:19:32.219Z,9.27
2023-04-23T08:22:00.169Z,11.82
2023-04-23T08:24:28.300Z,14.52
2023-04-23T08:26:56.980Z,9.90
2023-04-23T08:29:26.230Z,7.88
2023-04-23T08:31:54.128Z,8.35
2023-04-23T08:34:22.044Z,14.40
2023-04-23T08:36:49.966Z,11.57
2023-04-23T08:39:17.905Z,9.85
2023-04-23T08:41:55.174Z,9.50
2023-04-23T08:44:25.525Z,8.15
2023-04-23T08:46:55.890Z,13.27
2023-04-23T08:49:24.314Z,13.30
2023-04-23T08:51:54.611Z,9.90
2023-04-23T08:54:27.486Z,11.85
2023-04-23T08:56:57.552Z,11.93
2023-04-23T08:59:26.614Z,12.95
2023-04-23T09:01:56.817Z,8.57
2023-04-23T09:04:25.607Z,10.23
2023-04-23T09:06:53.624Z,10.23
2023-04-23T09:09:23.713Z,9.25
2023-04-23T09:11:53.483Z,10.65
2023-04-23T09:14:25.118Z,10.00
2023-04-23T09:16:54.119Z,9.18
2023-04-23T09:19:25.181Z,8.80
2023-04-23T09:21:53.815Z,7.65
2023-04-23T09:24:23.841Z,7.93
2023-04-23T09:26:52.774Z,8.48
2023-04-23T09:29:23.456Z,8.13
2023-04-23T09:31:52.896Z,8.80
2023-04-23T09:34:22.064Z,7.32
2023-04-23T09:36:52.891Z,8.63
2023-04-23T09:39:23.152Z,6.22
2023-04-23T09:41:52.949Z,6.93
2023-04-23T09:44:22.520Z,8.65
2023-04-23T09:46:50.791Z,4.70
2023-04-23T09:49:18.946Z,3.72
2023-04-23T09:51:48.662Z,5.07
2023-04-23T09:54:19.915Z,3.65
2023-04-23T09:56:51.294Z,3.03
2023-04-23T09:59:32.558Z,4.28
2023-04-23T10:02:09.593Z,4.45
2023-04-23T10:04:37.693Z,5.25
2023-04-23T10:07:18.847Z,5.80
2023-04-23T10:09:49.577Z,5.03
2023-04-23T10:12:36.911Z,4.60
2023-04-23T10:15:08.248Z,6.43
2023-04-23T10:17:36.860Z,7.18
2023-04-23T10:20:06.063Z,6.07
2023-04-23T10:22:35.854Z,6.05
2023-04-23T10:25:09.923Z,6.13
2023-04-23T10:27:51.855Z,8.00
2023-04-23T10:30:23.128Z,8.52
2023-04-23T10:32:51.733Z,9.00
2023-04-23T10:35:19.813Z,10.48
2023-04-23T10:37:48.863Z,13.40
2023-04-23T10:40:30.880Z,11.30
2023-04-23T10:43:00.657Z,12.85
2023-04-23T10:45:31.812Z,10.50
2023-04-23T10:48:00.165Z,11.13
2023-04-23T10:50:29.678Z,9.05
2023-04-23T10:52:59.221Z,9.95
2023-04-23T10:55:30.015Z,9.80
2023-04-23T10:58:03.391Z,12.13
2023-04-23T11:00:45.469Z,9.60
2023-04-23T11:03:32.889Z,12.38
2023-04-23T11:06:03.111Z,11.82
2023-04-23T11:08:32.481Z,11.65
2023-04-23T11:11:03.005Z,11.52
2023-04-23T11:13:31.313Z,11.90
2023-04-23T11:16:16.523Z,12.05
2023-04-23T11:19:03.205Z,10.60
2023-04-23T11:22:00.080Z,13.00
2023-04-23T11:24:37.197Z,12.48
2023-04-23T11:27:09.604Z,9.77
2023-04-23T11:29:38.805Z,9.90
2023-04-23T11:32:10.739Z,11.18
2023-04-23T11:34:40.019Z,11.10
2023-04-23T11:37:11.160Z,12.73
2023-04-23T11:39:40.797Z,12.43
2023-04-23T11:42:13.151Z,11.15
2023-04-23T11:44:42.198Z,10.52
2023-04-23T11:47:12.792Z,11.68
2023-04-23T11:49:42.666Z,10.20
2023-04-23T11:52:11.464Z,8.57
2023-04-23T11:54:41.650Z,8.57
2023-04-23T11:57:10.141Z,8.32
2023-04-23T11:59:39.498Z,7.55
2023-04-23T12:02:07.705Z,7.20
2023-04-23T12:04:36.370Z,6.10
2023-04-23T12:07:15.958Z,7.07
2023-04-23T12:09:51.318Z,4.50
2023-04-23T12:12:19.576Z,5.38
2023-04-23T12:14:48.852Z,4.78
2023-04-23T12:17:16.721Z,4.18
2023-04-23T12:19:45.882Z,4.57
2023-04-23T12:22:13.751Z,6.28
2023-04-23T12:24:51.382Z,4.40
2023-04-23T12:27:22.061Z,4.82
2023-04-23T12:30:00.910Z,3.70
2023-04-23T12:32:28.779Z,3.55
2023-04-23T12:34:57.259Z,2.30
2023-04-23T12:37:26.596Z,4.03
2023-04-23T12:39:56.554Z,3.53
2023-04-23T12:42:24.676Z,3.72
2023-04-23T12:44:55.717Z,3.33
2023-04-23T12:47:24.062Z,4.13
2023-04-23T12:49:53.564Z,4.78
2023-04-23T12:52:22.294Z,3.90
2023-04-23T12:54:52.222Z,2.55
2023-04-23T12:57:23.280Z,3.63
2023-04-23T12:59:54.790Z,2.40
2023-04-23T13:02:23.595Z,3.30
2023-04-23T13:04:51.523Z,2.83
2023-04-23T13:07:19.468Z,5.35
2023-04-23T13:09:47.387Z,2.80
2023-04-23T13:12:15.336Z,3.83
2023-04-23T13:14:43.185Z,4.97
2023-04-23T13:17:12.497Z,2.35
2023-04-23T13:19:40.606Z,2.95
2023-04-23T13:22:08.669Z,4.45
2023-04-23T13:24:36.547Z,2.20
2023-04-23T13:27:04.583Z,3.00
2023-04-23T13:29:32.429Z,3.28
2023-04-23T13:32:00.622Z,4.10
2023-04-23T13:34:30.833Z,3.80
2023-04-23T13:36:59.293Z,3.25
2023-04-23T13:39:27.439Z,3.22
2023-04-23T13:42:09.022Z,3.20
2023-04-23T13:44:37.629Z,4.10
2023-04-23T13:47:05.650Z,3.60
2023-04-23T13:49:34.942Z,3.13
2023-04-23T13:52:06.664Z,2.58
2023-04-23T13:54:35.581Z,2.28
2023-04-23T13:57:03.665Z,2.88
2023-04-23T13:59:31.574Z,2.83
2023-04-23T14:01:59.443Z,3.28
2023-04-23T14:04:27.398Z,3.35
2023-04-23T14:06:56.751Z,3.95
2023-04-23T14:09:25.182Z,4.88
2023-04-23T14:11:53.239Z,3.03
2023-04-23T14:14:21.135Z,3.35
2023-04-23T14:16:49.001Z,4.70
2023-04-23T14:19:17.429Z,4.30
2023-04-23T14:21:46.520Z,4.88
2023-04-23T14:24:24.223Z,5.40
2023-04-23T14:26:52.247Z,4.45
2023-04-23T14:29:25.352Z,3.20
2023-04-23T14:31:53.390Z,2.17
2023-04-23T14:34:21.382Z,2.60
2023-04-23T14:36:49.919Z,3.95
2023-04-23T14:39:19.149Z,3.97
2023-04-23T14:41:47.160Z,2.60
2023-04-23T14:44:15.226Z,2.08
2023-04-23T14:46:43.124Z,3.75
2023-04-23T14:49:11.540Z,2.15
2023-04-23T14:51:39.528Z,3.35
2023-04-23T14:54:07.430Z,2.47
2023-04-23T14:56:37.248Z,5.15
2023-04-23T14:59:05.801Z,1.55
2023-04-23T15:01:33.770Z,2.70
2023-04-23T15:04:02.129Z,2.58
2023-04-23T15:06:30.144Z,3.53
2023-04-23T15:08:58.078Z,2.58
2023-04-23T15:11:26.273Z,2.30
2023-04-23T15:14:04.355Z,4.35
2023-04-23T15:19:07.053Z,2.67
2023-04-23T15:21:35.314Z,2.08
2023-04-23T15:24:03.231Z,1.85
2023-04-23T15:26:32.656Z,1.92
2023-04-23T15:29:03.089Z,1.95
2023-04-23T15:31:31.184Z,2.25
2023-04-23T15:33:59.070Z,2.47
2023-04-23T15:36:26.958Z,4.53
2023-04-23T15:38:54.810Z,1.52
2023-04-23T15:41:22.966Z,2.03
2023-04-23T15:43:53.204Z,4.10
2023-04-23T15:46:22.450Z,2.33
2023-04-23T15:48:50.315Z,1.73
2023-04-23T15:51:18.255Z,1.52
2023-04-23T15:53:46.133Z,1.70
2023-04-23T15:56:14.002Z,2.38
2023-04-23T15:58:41.831Z,4.25
2023-04-23T16:01:09.922Z,2.22
2023-04-23T16:03:39.415Z,2.55
2023-04-23T16:06:07.528Z,3.28
2023-04-23T16:08:35.440Z,2.25
2023-04-23T16:11:04.720Z,2.42
2023-04-23T16:13:32.646Z,1.48
2023-04-23T16:16:00.520Z,1.38
2023-04-23T16:18:28.407Z,2.20
2023-04-23T16:20:58.742Z,1.35
2023-04-23T16:23:26.727Z,1.58
2023-04-23T16:25:56.676Z,1.92
2023-04-23T16:28:24.704Z,1.67
2023-04-23T16:30:52.557Z,2.88
2023-04-23T16:33:20.453Z,2.75
2023-04-23T16:35:48.747Z,1.50
2023-04-23T16:38:17.945Z,1.88
2023-04-23T16:40:47.251Z,2.20
2023-04-23T16:43:15.206Z,1.52
2023-04-23T16:45:43.232Z,2.42
2023-04-23T16:48:12.978Z,2.63
2023-04-23T16:50:42.780Z,2.53
2023-04-23T16:53:10.881Z,1.50
2023-04-23T16:55:40.104Z,1.35
2023-04-23T16:58:07.970Z,1.42
2023-04-23T17:00:35.803Z,1.40
2023-04-23T17:03:04.140Z,1.50
2023-04-23T17:05:35.200Z,3.25
2023-04-23T17:08:03.172Z,3.08
2023-04-23T17:10:31.109Z,1.50
2023-04-23T17:13:00.352Z,1.67
2023-04-23T17:15:28.208Z,3.63
2023-04-23T17:17:56.162Z,1.52
2023-04-23T17:20:24.049Z,2.22
2023-04-23T17:22:52.023Z,1.85
2023-04-23T17:25:19.931Z,3.17
2023-04-23T17:27:47.759Z,1.88
2023-04-23T17:30:17.139Z,1.58
2023-04-23T17:32:45.368Z,1.90
2023-04-23T17:35:13.247Z,1.50
2023-04-23T17:37:41.147Z,1.58
2023-04-23T17:40:10.801Z,1.67
2023-04-23T17:42:38.717Z,5.53
2023-04-23T17:45:07.582Z,3.97
2023-04-23T17:47:37.538Z,3.10
2023-04-23T17:50:06.310Z,2.08
2023-04-23T17:52:34.310Z,1.95
2023-04-23T17:55:02.162Z,4.38
2023-04-23T17:57:30.030Z,1.63
2023-04-23T17:59:59.608Z,3.63
2023-04-23T18:02:27.641Z,2.38
2023-04-23T18:04:59.297Z,2.50
2023-04-23T18:07:27.225Z,3.05
2023-04-23T18:09:55.055Z,2.35
2023-04-23T18:12:22.997Z,2.92
2023-04-23T18:14:50.952Z,2.78
2023-04-23T18:17:18.828Z,3.25
2023-04-23T18:19:46.687Z,3.70
2023-04-23T18:22:16.544Z,3.80
2023-04-23T18:24:45.390Z,2.75
2023-04-23T18:27:13.234Z,5.13
2023-04-23T18:29:41.591Z,4.63
2023-04-23T18:32:10.958Z,6.20
2023-04-23T18:34:40.507Z,3.72
2023-04-23T18:37:11.486Z,3.00
2023-04-23T18:39:41.560Z,3.38
2023-04-23T18:42:09.413Z,3.78
2023-04-23T18:44:37.236Z,5.35
2023-04-23T18:47:05.142Z,6.03
2023-04-23T18:49:40.867Z,5.97
2023-04-23T18:52:09.061Z,5.93
2023-04-23T18:54:36.926Z,7.10
2023-04-23T18:57:06.175Z,4.90
2023-04-23T18:59:37.166Z,4.63
2023-04-23T19:02:05.886Z,6.35
2023-04-23T19:04:34.235Z,3.92
2023-04-23T19:07:02.228Z,9.75
2023-04-23T19:09:30.183Z,6.60
2023-04-23T19:11:58.641Z,7.07
2023-04-23T19:14:28.129Z,6.18
2023-04-23T19:16:56.456Z,6.10
2023-04-23T19:19:24.466Z,8.88
2023-04-23T19:21:52.327Z,8.40
2023-04-23T19:24:20.201Z,5.30
2023-04-23T19:26:48.096Z,6.80
2023-04-23T19:29:16.004Z,7.60
2023-04-23T19:31:45.327Z,6.93
2023-04-23T19:34:16.420Z,7.53
2023-04-23T19:36:44.270Z,6.95
2023-04-23T19:39:12.156Z,7.40
2023-04-23T19:41:40.053Z,6.60
2023-04-23T19:44:08.056Z,8.60
2023-04-23T19:46:35.955Z,6.78
2023-04-23T19:49:05.183Z,10.18
2023-04-23T19:51:35.569Z,7.78
2023-04-23T19:54:03.504Z,8.38
2023-04-23T19:56:31.384Z,10.77
2023-04-23T19:58:59.242Z,8.50
2023-04-23T20:01:28.194Z,9.70
2023-04-23T20:03:56.659Z,10.18
2023-04-23T20:06:26.433Z,7.80
2023-04-23T20:09:07.190Z,8.60
2023-04-23T20:11:35.860Z,6.65
2023-04-23T20:14:03.795Z,8.88
2023-04-23T20:16:31.761Z,8.00
2023-04-23T20:18:59.770Z,11.15
2023-04-23T20:21:29.034Z,7.57
2023-04-23T20:23:56.861Z,18.63
2023-04-23T20:26:24.921Z,23.58
2023-04-23T20:28:52.916Z,12.63
2023-04-23T20:31:21.994Z,10.13
2023-04-23T20:33:49.908Z,7.90
2023-04-23T20:36:17.903Z,7.97
2023-04-23T20:38:47.405Z,10.48
2023-04-23T20:41:15.421Z,7.80
2023-04-23T20:43:45.036Z,8.55
2023-04-23T20:46:13.074Z,9.90
2023-04-23T20:48:43.324Z,6.90
2023-04-23T20:51:11.311Z,12.15
2023-04-23T20:53:39.284Z,8.82
2023-04-23T20:56:08.536Z,7.50
2023-04-23T20:58:36.422Z,8.45
2023-04-23T21:01:07.427Z,6.88
2023-04-23T21:03:37.012Z,6.25
2023-04-23T21:06:05.788Z,7.65
2023-04-23T21:08:33.747Z,6.75
2023-04-23T21:11:02.642Z,5.38
2023-04-23T21:13:31.941Z,7.95
2023-04-23T21:15:59.819Z,5.78
2023-04-23T21:18:27.725Z,5.57
2023-04-23T21:20:55.660Z,6.05
2023-04-23T21:23:23.494Z,7.72
2023-04-23T21:25:51.878Z,7.13
2023-04-23T21:28:20.032Z,6.75
2023-04-23T21:30:51.203Z,6.28
2023-04-23T21:33:20.522Z,7.03
2023-04-23T21:35:49.686Z,11.57
2023-04-23T21:38:17.937Z,7.97
2023-04-23T21:40:46.281Z,6.72
2023-04-23T21:43:15.951Z,7.95
2023-04-23T21:45:43.871Z,7.03
2023-04-23T21:48:13.169Z,8.15
2023-04-23T21:50:41.101Z,7.70
2023-04-23T21:53:08.944Z,5.22
2023-04-23T21:55:36.864Z,5.53
2023-04-23T21:58:16.556Z,6.72
2023-04-23T22:00:46.286Z,5.15
2023-04-23T22:03:17.179Z,5.80
2023-04-23T22:05:54.787Z,8.35
2023-04-23T22:08:23.271Z,4.82
2023-04-23T22:10:51.170Z,4.28
2023-04-23T22:13:20.346Z,5.68
2023-04-23T22:15:49.585Z,7.05
2023-04-23T22:18:18.827Z,10.00
2023-04-23T22:20:49.373Z,6.80
2023-04-23T22:23:17.473Z,5.88
2023-04-23T22:25:45.831Z,7.22
2023-04-23T22:28:13.677Z,5.50
2023-04-23T22:30:41.533Z,5.60
2023-04-23T22:33:09.431Z,8.35
2023-04-23T22:35:38.826Z,5.40
2023-04-23T22:38:06.807Z,6.32
2023-04-23T22:40:34.801Z,5.75
2023-04-23T22:43:02.635Z,7.60
2023-04-23T22:45:30.861Z,6.70
2023-04-23T22:47:59.240Z,9.05
2023-04-23T22:50:28.945Z,5.90
2023-04-23T22:52:58.230Z,5.80
2023-04-23T22:55:26.253Z,6.82
2023-04-23T22:57:54.352Z,5.43
2023-04-23T23:00:22.296Z,5.57
2023-04-23T23:02:50.343Z,5.30
2023-04-23T23:05:18.589Z,6.47
2023-04-23T23:07:46.510Z,6.47
2023-04-23T23:10:16.021Z,8.15
2023-04-23T23:12:43.908Z,7.05
2023-04-23T23:15:12.746Z,8.57
2023-04-23T23:17:41.240Z,4.72
2023-04-23T23:20:09.994Z,6.03
2023-04-23T23:22:37.887Z,7.65
2023-04-23T23:25:06.962Z,6.63
2023-04-23T23:27:36.366Z,6.18
2023-04-23T23:30:05.895Z,4.97
2023-04-23T23:32:33.876Z,5.65
2023-04-23T23:35:01.995Z,6.30
2023-04-23T23:37:30.534Z,6.38
2023-04-23T23:39:58.479Z,5.72
2023-04-23T23:42:26.564Z,6.57
2023-04-23T23:44:55.791Z,6.72
2023-04-23T23:47:23.915Z,6.55
2023-04-23T23:49:52.028Z,6.70
2023-04-23T23:52:19.957Z,6.20
2023-04-23T23:54:47.847Z,6.35
2023-04-23T23:57:15.789Z,8.18
2023-04-23T23:59:43.963Z,6.30
